Time;durP1;ratioP1;P1;durP2;ratioP2;P2;SDS_P1;SDS_P2;PMS_P1;PMS_P2;Temp;Humidity;BMP_temperature;BMP_pressure;BME280_temperature;BME280_humidity;BME280_pressure;Samples;Min_cycle;Max_cycle;Signal;HPM_P1;HPM_P2
2024/03/14 00:02:05;;;;;;;3.03;2.10;;;9.80;99.90;;;10.75;100.00;98064.50;4949663;28;20848;-77
2024/03/14 00:04:34;;;;;;;5.70;2.00;;;9.90;99.90;;;10.71;100.00;98064.06;4939416;28;20478;-77
2024/03/14 00:07:03;;;;;;;6.77;2.30;;;9.80;99.90;;;10.69;100.00;98066.03;4947834;28;20218;-77
2024/03/14 00:09:32;;;;;;;4.40;2.60;;;9.80;99.90;;;10.58;100.00;98069.16;4949091;28;20464;-77
2024/03/14 00:12:01;;;;;;;11.63;2.10;;;9.70;99.90;;;10.57;100.00;98068.34;4952815;28;20459;-77
2024/03/14 00:14:30;;;;;;;6.13;2.50;;;9.80;99.90;;;10.60;100.00;98067.16;4936905;28;20470;-77
2024/03/14 00:16:59;;;;;;;7.33;2.60;;;9.80;99.90;;;10.64;100.00;98065.00;4946481;28;20578;-77
2024/03/14 00:19:27;;;;;;;3.33;2.80;;;9.80;99.90;;;10.67;100.00;98060.19;4950285;28;20472;-77
2024/03/14 00:21:56;;;;;;;3.77;2.20;;;9.80;99.90;;;10.59;100.00;98055.91;4951990;28;20958;-76
2024/03/14 00:24:25;;;;;;;7.07;2.10;;;9.70;99.90;;;10.59;100.00;98061.13;4936061;28;20495;-78
2024/03/14 00:26:53;;;;;;;8.65;1.77;;;9.70;99.90;;;10.54;100.00;98055.66;4952008;28;21038;-77
2024/03/14 00:29:23;;;;;;;7.07;2.37;;;9.60;99.90;;;10.60;100.00;98060.13;4967186;28;20692;-77
2024/03/14 00:31:52;;;;;;;10.30;2.47;;;9.80;99.90;;;10.66;100.00;98058.56;4951818;28;20552;-76
2024/03/14 00:34:21;;;;;;;3.23;2.40;;;9.80;99.90;;;10.71;100.00;98064.06;4952033;28;21095;-77
2024/03/14 00:36:49;;;;;;;4.60;2.30;;;9.80;99.90;;;10.69;100.00;98054.78;4951574;28;20461;-77
2024/03/14 00:39:21;;;;;;;3.53;2.25;;;9.90;99.90;;;10.65;100.00;98058.78;4950707;28;20848;-78
2024/03/14 00:41:50;;;;;;;3.03;2.17;;;9.80;99.90;;;10.65;100.00;98064.00;4936560;28;20259;-78
2024/03/14 00:44:19;;;;;;;3.47;1.80;;;9.80;99.90;;;10.62;100.00;98059.94;4936025;28;20468;-77
2024/03/14 00:46:47;;;;;;;3.83;2.42;;;9.70;99.90;;;10.54;100.00;98058.28;4946317;28;21021;-77
2024/03/14 00:49:16;;;;;;;11.97;2.13;;;9.60;99.90;;;10.57;100.00;98052.66;4951509;28;20760;-77
2024/03/14 00:51:45;;;;;;;6.93;2.37;;;9.70;99.90;;;10.60;100.00;98057.53;4951078;28;20476;-77
2024/03/14 00:54:14;;;;;;;4.20;2.30;;;9.70;99.90;;;10.57;100.00;98060.50;4950768;28;20457;-78
2024/03/14 00:56:46;;;;;;;4.60;2.17;;;9.70;99.90;;;10.56;100.00;98051.03;4950945;28;20471;-77
2024/03/14 00:59:15;;;;;;;3.77;2.30;;;9.70;99.90;;;10.59;100.00;98049.84;4953897;28;20213;-77
2024/03/14 01:01:45;;;;;;;5.90;2.37;;;9.70;99.90;;;10.56;100.00;98050.22;4952320;28;20528;-77
2024/03/14 01:04:13;;;;;;;4.80;1.93;;;9.70;99.90;;;10.54;100.00;98050.44;4948128;28;20466;-77
2024/03/14 01:06:42;;;;;;;5.83;2.40;;;9.70;99.90;;;10.55;100.00;98044.19;4967594;28;20458;-77
2024/03/14 01:09:11;;;;;;;3.07;2.77;;;9.70;99.90;;;10.56;100.00;98039.75;4948954;28;20477;-77
2024/03/14 01:11:40;;;;;;;7.10;2.40;;;9.70;99.90;;;10.56;100.00;98045.00;4949669;28;20579;-77
2024/03/14 01:14:11;;;;;;;5.83;2.10;;;9.70;99.90;;;10.51;100.00;98032.50;4949160;28;20475;-77
2024/03/14 01:16:40;;;;;;;13.53;1.83;;;9.70;99.90;;;10.43;100.00;98035.22;4935088;28;20468;-77
2024/03/14 01:19:11;;;;;;;4.57;2.10;;;9.60;99.90;;;10.49;100.00;98029.25;4934759;28;20463;-77
2024/03/14 01:21:39;;;;;;;4.80;2.70;;;9.60;99.90;;;10.48;100.00;98027.63;4928873;28;20495;-77
2024/03/14 01:24:08;;;;;;;3.50;2.20;;;9.60;99.90;;;10.48;100.00;98025.00;4950764;28;20898;-77
2024/03/14 01:26:36;;;;;;;6.40;2.33;;;9.70;99.90;;;10.44;100.00;98013.34;4934221;28;20444;-77
2024/03/14 01:29:06;;;;;;;3.80;2.10;;;9.60;99.90;;;10.45;100.00;98017.53;4950437;28;20465;-77
2024/03/14 01:31:36;;;;;;;3.00;2.00;;;9.60;99.90;;;10.42;100.00;98020.53;4934467;28;20525;-77
2024/03/14 01:34:05;;;;;;;5.87;1.97;;;9.60;99.90;;;10.32;100.00;98016.59;4933740;28;20522;-77
2024/03/14 01:36:36;;;;;;;4.80;2.70;;;9.50;99.90;;;10.27;100.00;98011.97;4950109;28;20563;-77
2024/03/14 01:39:05;;;;;;;10.00;2.77;;;9.40;99.90;;;10.25;100.00;98006.09;4929679;28;20936;-77
2024/03/14 01:41:34;;;;;;;6.80;2.50;;;9.40;99.90;;;10.22;100.00;98000.44;4965102;28;20518;-77
2024/03/14 01:44:04;;;;;;;3.30;2.20;;;9.30;99.90;;;10.16;100.00;98011.63;4954099;28;21017;-77
2024/03/14 01:46:33;;;;;;;6.40;2.70;;;9.30;99.90;;;10.06;100.00;98009.28;4953608;28;20569;-77
2024/03/14 01:49:02;;;;;;;12.73;2.77;;;9.20;99.90;;;9.98;100.00;98012.81;4955469;28;20464;-77
2024/03/14 01:51:31;;;;;;;4.10;2.17;;;9.10;99.90;;;9.94;100.00;98008.94;4935982;28;21057;-77
2024/03/14 01:54:00;;;;;;;6.93;2.57;;;9.10;99.90;;;9.90;100.00;98007.69;4934136;28;20552;-76
2024/03/14 01:56:30;;;;;;;4.00;2.30;;;9.10;99.90;;;9.83;100.00;98001.56;4933595;28;20497;-77
2024/03/14 01:58:58;;;;;;;6.83;2.90;;;9.00;99.90;;;9.79;100.00;98007.38;4950003;28;20468;-77
2024/03/14 02:01:30;;;;;;;3.97;2.70;;;9.00;99.90;;;9.76;100.00;98010.31;4949067;28;20526;-77
2024/03/14 02:03:59;;;;;;;6.97;2.83;;;8.90;99.90;;;9.75;100.00;98009.53;4949627;28;20289;-77
2024/03/14 02:06:30;;;;;;;4.78;2.97;;;8.90;99.90;;;9.79;100.00;98004.75;4965824;28;20514;-77
2024/03/14 02:08:59;;;;;;;6.43;2.47;;;9.00;99.90;;;9.70;100.00;98003.22;4950655;28;20208;-77
2024/03/14 02:11:28;;;;;;;3.40;2.50;;;8.90;99.90;;;9.71;100.00;98008.28;4947389;28;20478;-77
2024/03/14 02:13:57;;;;;;;3.80;2.60;;;8.90;99.90;;;9.75;100.00;98004.31;4949631;28;20291;-77
2024/03/14 02:16:25;;;;;;;9.93;2.47;;;8.90;99.90;;;9.74;100.00;98009.72;4934651;28;20471;-78
2024/03/14 02:18:54;;;;;;;3.97;2.67;;;8.90;99.90;;;9.77;100.00;98004.13;4949202;28;20472;-77
2024/03/14 02:21:22;;;;;;;5.33;2.60;;;9.00;99.90;;;9.71;100.00;98004.84;4943132;28;20572;-77
2024/03/14 02:23:51;;;;;;;9.10;3.30;;;8.90;99.90;;;9.76;100.00;98005.09;4932352;28;21134;-77
2024/03/14 02:26:21;;;;;;;4.65;2.60;;;8.90;99.90;;;9.81;100.00;97998.34;4964910;28;20976;-77
2024/03/14 02:28:50;;;;;;;7.30;2.87;;;8.90;99.90;;;9.83;100.00;98000.75;4948561;28;20330;-77
2024/03/14 02:31:18;;;;;;;3.50;2.33;;;9.00;99.90;;;9.81;100.00;97998.34;4968828;28;20690;-77
2024/03/14 02:33:48;;;;;;;5.67;2.80;;;9.00;99.90;;;9.84;100.00;97997.16;4935488;28;20551;-77
2024/03/14 02:36:16;;;;;;;6.77;2.70;;;9.00;99.90;;;9.84;100.00;97991.94;4937306;28;20465;-77
2024/03/14 02:38:45;;;;;;;5.80;2.30;;;9.00;99.90;;;9.84;100.00;97984.09;4969096;28;20467;-76
2024/03/14 02:41:13;;;;;;;4.60;2.43;;;9.00;99.90;;;9.82;100.00;97988.72;4933072;28;20988;-76
2024/03/14 02:43:42;;;;;;;3.83;2.60;;;9.00;99.90;;;9.80;100.00;97982.84;4935155;28;20958;-77
2024/03/14 02:46:11;;;;;;;8.90;2.57;;;9.00;99.90;;;9.81;100.00;97977.47;4936822;28;20896;-77
2024/03/14 02:48:39;;;;;;;8.77;2.60;;;8.90;99.90;;;9.74;100.00;97981.78;4952963;28;20479;-77
2024/03/14 02:51:10;;;;;;;4.43;2.50;;;8.90;99.90;;;9.69;100.00;97981.53;4936379;28;20496;-77
2024/03/14 02:53:39;;;;;;;4.28;2.50;;;8.80;99.90;;;9.70;100.00;97975.31;4952295;28;20469;-77
2024/03/14 02:56:09;;;;;;;4.97;2.90;;;8.80;99.90;;;9.63;100.00;97974.44;4968386;28;20579;-77
2024/03/14 02:58:37;;;;;;;11.03;2.60;;;8.70;99.90;;;9.49;100.00;97976.06;4951117;28;20461;-77
2024/03/14 03:01:08;;;;;;;8.43;2.67;;;8.60;99.90;;;9.44;100.00;97973.19;4935761;28;20465;-77
2024/03/14 03:03:40;;;;;;;7.30;3.10;;;8.60;99.90;;;9.40;100.00;97974.56;4952711;28;20466;-78
2024/03/14 03:06:11;;;;;;;8.60;2.77;;;8.50;99.90;;;9.39;100.00;97972.94;4935459;28;20966;-76
2024/03/14 03:08:42;;;;;;;5.57;2.92;;;8.50;99.90;;;9.32;100.00;97974.66;4966639;28;20534;-77
2024/03/14 03:11:11;;;;;;;9.10;3.20;;;8.40;99.90;;;9.31;100.00;97970.41;4937220;28;20287;-77
2024/03/14 03:13:40;;;;;;;5.40;2.67;;;8.50;99.90;;;9.25;100.00;97968.53;4935677;28;20213;-77
2024/03/14 03:16:09;;;;;;;5.07;2.90;;;8.40;99.90;;;9.31;100.00;97967.78;4930167;28;20937;-77
2024/03/14 03:18:38;;;;;;;4.53;2.83;;;8.40;99.90;;;9.32;100.00;97972.03;4932703;28;20501;-77
2024/03/14 03:21:07;;;;;;;11.60;3.07;;;8.50;99.90;;;9.25;100.00;97984.19;4948444;28;20562;-77
2024/03/14 03:23:34;;;;;;;13.50;3.70;;;8.50;99.90;;;9.28;100.00;97965.56;4948762;28;20499;-77
2024/03/14 03:26:06;;;;;;;3.37;2.80;;;8.50;99.90;;;9.25;100.00;97973.75;4933476;28;20483;-77
2024/03/14 03:28:35;;;;;;;4.70;3.03;;;8.50;99.90;;;9.27;100.00;97968.31;4932752;28;20455;-77
2024/03/14 03:31:08;;;;;;;7.95;3.42;;;8.40;99.90;;;9.30;100.00;97968.78;4933016;28;20460;-77
2024/03/14 03:33:37;;;;;;;4.27;2.90;;;8.50;99.90;;;9.33;100.00;97957.19;4949097;28;20255;-77
2024/03/14 03:36:05;;;;;;;3.20;2.83;;;8.50;99.90;;;9.31;100.00;97959.16;4948694;28;20617;-77
2024/03/14 03:38:36;;;;;;;7.20;2.77;;;8.50;99.90;;;9.30;100.00;97962.78;4948038;28;20464;-77
2024/03/14 03:41:04;;;;;;;6.00;3.43;;;8.60;99.90;;;9.30;100.00;97958.34;4950089;28;20466;-77
2024/03/14 03:43:32;;;;;;;7.20;4.20;;;8.50;99.90;;;9.31;100.00;97953.94;4947768;28;20500;-77
2024/03/14 03:46:00;;;;;;;8.43;2.97;;;8.50;99.90;;;9.26;100.00;97961.50;4935651;28;20834;-77
2024/03/14 03:48:29;;;;;;;3.63;2.90;;;8.40;99.90;;;9.23;100.00;97957.47;4950633;28;20469;-77
2024/03/14 03:50:56;;;;;;;7.70;3.50;;;8.40;99.90;;;9.25;100.00;97960.69;4938380;28;20858;-77
2024/03/14 03:53:25;;;;;;;4.40;2.80;;;8.40;99.90;;;9.29;100.00;97964.56;4938933;28;20461;-77
2024/03/14 03:55:52;;;;;;;5.13;2.53;;;8.50;99.90;;;9.28;100.00;97960.34;4952731;28;21100;-76
2024/03/14 03:58:22;;;;;;;6.20;3.17;;;8.50;99.90;;;9.29;100.00;97956.75;4950246;28;20640;-77
2024/03/14 04:00:52;;;;;;;5.63;3.08;;;8.50;99.90;;;9.26;100.00;97962.31;4952183;28;20493;-77
2024/03/14 04:03:21;;;;;;;7.67;3.33;;;8.50;99.90;;;9.27;100.00;97955.28;4937732;28;20244;-77
2024/03/14 04:05:50;;;;;;;4.23;2.70;;;8.50;99.90;;;9.31;100.00;97964.38;4950015;28;20467;-77
2024/03/14 04:08:17;;;;;;;7.50;2.60;;;8.50;99.90;;;9.26;100.00;97957.09;4963130;28;20459;-77
2024/03/14 04:10:46;;;;;;;8.43;2.77;;;8.60;99.90;;;9.21;100.00;97959.44;4933665;28;20482;-77
2024/03/14 04:13:15;;;;;;;8.20;3.30;;;8.50;99.90;;;9.24;100.00;97953.84;4946465;28;20485;-77
2024/03/14 04:15:43;;;;;;;7.83;2.90;;;8.40;99.90;;;9.26;100.00;97957.09;4936992;28;20975;-77
2024/03/14 04:18:11;;;;;;;9.00;3.33;;;8.50;99.90;;;9.25;100.00;97960.69;4926796;28;20474;-77
2024/03/14 04:20:40;;;;;;;9.10;3.13;;;8.50;99.90;;;9.25;100.00;97955.47;4932785;28;20475;-78
2024/03/14 04:23:10;;;;;;;2.97;2.60;;;8.40;99.90;;;9.20;100.00;97962.25;4932491;28;20502;-82
2024/03/14 04:25:39;;;;;;;4.43;3.70;;;8.40;99.90;;;9.17;100.00;97957.34;4951611;28;20474;-78
2024/03/14 04:28:07;;;;;;;6.13;3.23;;;8.40;99.90;;;9.20;100.00;97951.81;4936276;28;20461;-78
2024/03/14 04:30:36;;;;;;;15.77;3.17;;;8.40;99.90;;;9.15;100.00;97952.34;4935922;28;20974;-77
2024/03/14 04:33:07;;;;;;;10.00;3.30;;;8.30;99.90;;;9.15;100.00;97943.69;4956188;28;20204;-77
2024/03/14 04:35:36;;;;;;;4.10;3.13;;;8.30;99.90;;;9.12;100.00;97938.84;4958781;28;20833;-77
2024/03/14 04:38:05;;;;;;;6.83;2.73;;;8.30;99.90;;;9.12;100.00;97941.44;4956659;28;20465;-78
2024/03/14 04:40:33;;;;;;;3.97;3.30;;;8.30;99.90;;;9.07;100.00;97942.78;4939593;28;20466;-77
2024/03/14 04:43:04;;;;;;;3.27;2.73;;;8.20;99.90;;;8.99;100.00;97950.69;4947788;28;21044;-77
2024/03/14 04:45:33;;;;;;;8.37;3.80;;;8.20;99.90;;;8.98;100.00;97948.28;4952379;28;21021;-78
2024/03/14 04:48:04;;;;;;;7.80;3.57;;;8.10;99.90;;;8.97;100.00;97952.69;4933879;28;21113;-77
2024/03/14 04:50:35;;;;;;;11.00;3.67;;;8.10;99.90;;;8.95;100.00;97940.81;4934027;28;20505;-77
2024/03/14 04:53:04;;;;;;;8.03;3.30;;;8.10;99.90;;;9.01;100.00;97942.72;4950749;28;20505;-77
2024/03/14 04:55:33;;;;;;;4.00;2.80;;;8.20;99.90;;;9.03;100.00;97951.16;4936096;28;20466;-77
2024/03/14 04:58:03;;;;;;;8.80;3.10;;;8.30;99.90;;;9.00;100.00;97956.72;4931497;28;20507;-77
2024/03/14 05:00:32;;;;;;;6.60;2.70;;;8.20;99.90;;;8.96;100.00;97945.84;4950979;28;20530;-77
2024/03/14 05:03:04;;;;;;;11.63;2.90;;;8.20;99.90;;;8.98;100.00;97943.06;4935604;28;20504;-77
2024/03/14 05:05:32;;;;;;;3.10;2.63;;;8.20;99.90;;;8.98;100.00;97943.06;4951099;28;20459;-77
2024/03/14 05:08:01;;;;;;;5.00;3.30;;;8.20;99.90;;;8.96;100.00;97945.03;4947493;28;20521;-75
2024/03/14 05:10:31;;;;;;;6.43;3.70;;;8.10;99.90;;;8.95;100.00;97943.44;4941187;28;20471;-76
2024/03/14 05:13:00;;;;;;;6.20;3.30;;;8.20;99.90;;;8.97;100.00;97942.25;4950292;28;20843;-75
2024/03/14 05:15:28;;;;;;;5.27;3.00;;;8.10;99.90;;;8.97;100.00;97942.25;4932518;28;20939;-77
2024/03/14 05:18:01;;;;;;;7.00;2.63;;;8.10;99.90;;;8.93;100.00;97948.00;4931451;28;20553;-76
2024/03/14 05:20:31;;;;;;;7.60;2.90;;;8.10;99.90;;;8.88;100.00;97938.13;4938533;28;20474;-76
2024/03/14 05:22:59;;;;;;;6.53;2.67;;;8.00;99.90;;;8.80;100.00;97929.56;4938673;28;20580;-76
2024/03/14 05:25:28;;;;;;;4.10;3.30;;;7.90;99.90;;;8.76;100.00;97933.50;4948652;28;20522;-76
2024/03/14 05:27:57;;;;;;;6.27;2.87;;;7.90;99.90;;;8.77;100.00;97932.53;4933958;28;20462;-76
2024/03/14 05:30:25;;;;;;;7.93;3.30;;;7.90;99.90;;;8.79;100.00;97936.56;4944985;28;20471;-76
2024/03/14 05:32:54;;;;;;;5.87;3.33;;;7.90;99.90;;;8.73;100.00;97923.44;4950456;28;20465;-84
2024/03/14 05:35:22;;;;;;;4.93;2.90;;;7.90;99.90;;;8.71;100.00;97928.03;4932851;28;20471;-76
2024/03/14 05:37:51;;;;;;;12.35;3.67;;;7.80;99.90;;;8.69;100.00;97925.59;4964470;28;20476;-76
2024/03/14 05:40:20;;;;;;;5.40;3.03;;;7.90;99.90;;;8.64;100.00;97930.56;4956579;28;20202;-75
2024/03/14 05:42:52;;;;;;;6.25;3.28;;;7.80;99.90;;;8.70;100.00;97923.81;4939931;28;20588;-75
2024/03/14 05:45:21;;;;;;;7.30;3.80;;;7.80;99.90;;;8.70;100.00;97929.84;4955399;28;20201;-78
2024/03/14 05:47:51;;;;;;;12.07;3.70;;;7.80;99.90;;;8.69;100.00;97932.59;4941000;28;20472;-76
2024/03/14 05:50:19;;;;;;;9.50;3.70;;;7.80;99.90;;;8.69;100.00;97932.59;4956081;28;20489;-75
2024/03/14 05:52:49;;;;;;;6.80;3.73;;;7.80;99.90;;;8.69;100.00;97932.59;4955422;28;20498;-76
2024/03/14 05:55:17;;;;;;;7.50;4.30;;;7.80;99.90;;;8.69;100.00;97932.59;4951231;28;20445;-76
2024/03/14 05:57:46;;;;;;;6.37;3.60;;;7.80;99.90;;;8.56;100.00;97934.03;4940965;28;20469;-75
2024/03/14 06:00:20;;;;;;;5.67;3.60;;;7.70;99.90;;;8.57;100.00;97933.03;4956905;28;20477;-76
2024/03/14 06:02:49;;;;;;;3.50;2.83;;;7.70;99.90;;;8.58;100.00;97939.06;4963762;28;20554;-76
2024/03/14 06:05:18;;;;;;;6.73;3.50;;;7.80;99.90;;;8.59;100.00;97933.69;4961782;28;20843;-76
2024/03/14 06:07:46;;;;;;;14.90;3.95;;;7.80;99.90;;;8.58;100.00;97939.06;4959052;28;20472;-76
2024/03/14 06:10:15;;;;;;;11.37;3.27;;;7.70;99.90;;;8.57;100.00;97934.84;4960313;28;20707;-76
2024/03/14 06:12:45;;;;;;;4.73;3.17;;;7.70;99.90;;;8.52;100.00;97932.75;4941848;28;20467;-76
2024/03/14 06:15:14;;;;;;;7.43;3.70;;;7.70;99.90;;;8.53;100.00;97934.38;4940352;28;20508;-76
2024/03/14 06:17:43;;;;;;;10.63;3.93;;;7.70;99.90;;;8.54;100.00;97936.00;4955517;28;20217;-76
2024/03/14 06:20:12;;;;;;;5.80;3.43;;;7.80;99.90;;;8.58;100.00;97931.22;4954298;28;20559;-76
2024/03/14 06:22:44;;;;;;;6.33;3.37;;;7.70;99.90;;;8.58;100.00;97941.66;4939516;28;20846;-77
2024/03/14 06:25:15;;;;;;;13.00;6.50;;;7.70;99.90;;;8.55;100.00;97942.84;4955875;28;20459;-77
2024/03/14 06:27:44;;;;;;;9.73;5.70;;;7.60;99.90;;;8.50;100.00;97942.53;4940549;28;20469;-77
2024/03/14 06:30:13;;;;;;;7.13;4.87;;;7.60;99.90;;;8.49;100.00;97938.34;4955845;28;20481;-77
2024/03/14 06:32:46;;;;;;;11.30;4.17;;;7.60;99.90;;;8.52;100.00;97942.38;4957510;28;20967;-76
2024/03/14 06:35:17;;;;;;;8.07;4.30;;;7.60;99.90;;;8.56;100.00;97944.47;4953480;28;20472;-77
2024/03/14 06:37:46;;;;;;;8.63;3.90;;;7.60;99.90;;;8.57;100.00;97934.84;4954288;28;21095;-77
2024/03/14 06:40:16;;;;;;;10.63;5.33;;;7.70;99.90;;;8.55;100.00;97937.63;4938631;28;20598;-77
2024/03/14 06:42:46;;;;;;;6.83;4.60;;;7.70;99.90;;;8.56;100.00;97944.47;4954023;28;21073;-77
2024/03/14 06:45:14;;;;;;;12.65;4.70;;;7.70;99.90;;;8.61;100.00;97946.50;4954226;28;20501;-77
2024/03/14 06:47:45;;;;;;;7.50;4.50;;;7.70;99.90;;;8.67;100.00;97943.22;4934142;28;20498;-77
2024/03/14 06:50:15;;;;;;;6.23;3.50;;;7.80;99.90;;;8.67;100.00;97942.41;4955970;28;21126;-77
2024/03/14 06:52:44;;;;;;;7.30;3.20;;;7.80;99.90;;;8.72;100.00;97945.28;4958497;28;20573;-77
2024/03/14 06:55:13;;;;;;;6.13;3.83;;;7.90;99.90;;;8.72;100.00;97953.91;4956808;28;20487;-76
2024/03/14 06:57:45;;;;;;;8.23;4.13;;;7.90;99.90;;;8.77;100.00;97949.00;4955296;28;20459;-77
2024/03/14 07:00:16;;;;;;;5.40;3.10;;;7.90;99.90;;;8.78;100.00;97947.19;4942545;28;21057;-76
2024/03/14 07:02:46;;;;;;;5.70;3.30;;;8.00;99.90;;;8.78;100.00;97941.97;4958154;28;20200;-77
2024/03/14 07:05:15;;;;;;;14.30;3.60;;;7.90;99.90;;;8.75;100.00;97952.75;4940178;28;20535;-77
2024/03/14 07:07:45;;;;;;;6.27;2.83;;;7.90;99.90;;;8.71;100.00;97943.69;4942001;28;20528;-77
2024/03/14 07:10:14;;;;;;;5.67;3.57;;;7.90;99.90;;;8.70;100.00;97939.44;4954364;28;20551;-77
2024/03/14 07:12:45;;;;;;;5.90;3.50;;;7.90;99.90;;;8.76;100.00;97949.97;4953141;28;21054;-77
2024/03/14 07:15:17;;;;;;;6.93;3.80;;;7.90;99.90;;;8.84;100.00;97944.69;4939669;28;20475;-77
2024/03/14 07:17:46;;;;;;;6.47;3.53;;;8.10;99.90;;;8.88;100.00;97948.56;4953086;28;20462;-76
2024/03/14 07:20:24;;;;;;;6.72;3.72;;;8.20;99.90;;;8.93;100.00;97948.00;4953133;28;20987;-77
2024/03/14 07:22:53;;;;;;;7.20;4.43;;;8.30;99.90;;;9.00;100.00;97946.28;4942721;28;20206;-76
2024/03/14 07:25:22;;;;;;;6.45;4.43;;;8.50;99.90;;;9.05;100.00;97938.75;4938508;28;20505;-77
2024/03/14 07:27:51;;;;;;;8.53;4.17;;;8.50;99.90;;;9.12;100.00;97938.84;4952934;28;20212;-77
2024/03/14 07:30:24;;;;;;;10.77;5.07;;;8.60;99.90;;;9.13;100.00;97936.03;4954971;28;20824;-77
2024/03/14 07:32:53;;;;;;;8.07;4.97;;;8.70;99.90;;;9.13;100.00;97930.03;4953971;28;20448;-77
2024/03/14 07:35:23;;;;;;;9.10;5.37;;;8.70;99.90;;;9.15;100.00;97936.69;4937731;28;20504;-77
2024/03/14 07:37:52;;;;;;;8.30;4.70;;;8.70;99.90;;;9.21;100.00;97933.34;4954805;28;20476;-76
2024/03/14 07:40:30;;;;;;;12.70;5.93;;;8.70;99.90;;;9.29;100.00;97938.47;4953202;28;20470;-77
2024/03/14 07:42:59;;;;;;;7.80;4.77;;;8.70;99.90;;;9.33;100.00;97936.31;4941552;28;20475;-77
2024/03/14 07:45:27;;;;;;;16.65;5.68;;;8.70;99.90;;;9.36;100.00;97941.97;4954691;28;20504;-76
2024/03/14 07:47:56;;;;;;;8.60;4.90;;;8.80;99.90;;;9.41;100.00;97944.84;4944327;28;20207;-77
2024/03/14 07:50:25;;;;;;;9.00;6.20;;;8.80;99.90;;;9.44;100.00;97936.63;4941810;28;20475;-77
2024/03/14 07:52:56;;;;;;;8.55;5.60;;;8.90;99.90;;;9.46;100.00;97947.72;4958268;28;20457;-77
2024/03/14 07:55:25;;;;;;;11.47;5.83;;;8.90;99.90;;;9.49;100.00;97943.94;4944402;28;20214;-76
2024/03/14 07:57:53;;;;;;;11.80;6.33;;;9.00;99.90;;;9.50;100.00;97930.72;4975382;28;20474;-77
2024/03/14 08:00:23;;;;;;;9.43;5.00;;;8.90;99.90;;;9.58;100.00;97940.22;4957922;28;20880;-76
2024/03/14 08:02:55;;;;;;;12.40;6.93;;;8.90;99.90;;;9.61;100.00;97932.81;4938852;28;20466;-77
2024/03/14 08:05:31;;;;;;;14.53;6.23;;;9.00;99.90;;;9.63;100.00;97934.47;4958431;28;21301;-77
2024/03/14 08:08:02;;;;;;;12.67;6.77;;;9.10;99.90;;;9.64;100.00;97936.91;4960119;28;20982;-76
2024/03/14 08:10:47;;;;;;;11.63;6.60;;;9.10;99.90;;;9.65;100.00;97929.88;4950033;28;20879;-77
2024/03/14 08:13:20;;;;;;;11.73;5.97;;;9.20;99.90;;;9.70;100.00;97927.50;4957556;28;20526;-77
2024/03/14 08:15:54;;;;;;;12.93;6.78;;;9.20;99.90;;;9.70;100.00;97930.94;4959203;28;20562;-77
2024/03/14 08:18:24;;;;;;;13.80;6.77;;;9.20;99.90;;;9.75;100.00;97935.59;4941712;28;20230;-77
2024/03/14 08:20:57;;;;;;;13.67;6.53;;;9.30;99.90;;;9.80;100.00;97941.06;4942464;28;20461;-77
2024/03/14 08:23:27;;;;;;;13.67;8.10;;;9.20;99.90;;;9.79;100.00;97939.47;4944849;28;20490;-77
2024/03/14 08:25:57;;;;;;;16.17;7.20;;;9.10;99.90;;;9.86;100.00;97937.72;4941321;28;20501;-77
2024/03/14 08:28:25;;;;;;;11.83;6.67;;;9.10;99.90;;;9.90;100.00;97938.97;4940825;28;20468;-77
2024/03/14 08:30:54;;;;;;;10.40;6.80;;;9.20;99.90;;;9.94;100.00;97945.44;4943332;28;20518;-77
2024/03/14 08:33:23;;;;;;;12.63;7.97;;;9.30;99.90;;;9.96;100.00;97941.66;4962837;28;20486;-77
2024/03/14 08:35:53;;;;;;;11.47;7.23;;;9.30;99.90;;;9.93;100.00;97944.63;4946911;28;20299;-77
2024/03/14 08:38:23;;;;;;;13.70;6.13;;;9.30;99.90;;;9.93;100.00;97946.44;4978360;28;20470;-77
2024/03/14 08:40:51;;;;;;;12.70;7.67;;;9.30;99.90;;;9.91;100.00;97932.75;4960459;28;21221;-77
2024/03/14 08:43:20;;;;;;;11.40;7.33;;;9.30;99.90;;;9.95;100.00;97940.03;4947475;28;20477;-77
2024/03/14 08:45:51;;;;;;;10.37;7.10;;;9.30;99.90;;;9.98;100.00;97938.88;4959779;28;20516;-77
2024/03/14 08:48:21;;;;;;;11.83;7.37;;;9.30;99.90;;;10.02;100.00;97940.13;4961205;28;20467;-76
2024/03/14 08:50:50;;;;;;;25.50;7.28;;;9.30;99.90;;;10.08;100.00;97936.75;4961780;28;20494;-77
2024/03/14 08:53:19;;;;;;;12.43;6.87;;;9.30;99.90;;;10.10;100.00;97939.97;4963205;28;20468;-77
2024/03/14 08:55:54;;;;;;;10.10;7.03;;;9.30;99.90;;;10.12;100.00;97932.78;4960889;28;20552;-78
2024/03/14 08:58:25;;;;;;;13.43;7.13;;;9.30;99.90;;;10.22;100.00;97938.53;4961952;28;20813;-77
2024/03/14 09:00:56;;;;;;;12.00;7.10;;;9.60;99.90;;;10.29;100.00;97938.59;4963251;28;20465;-77
2024/03/14 09:03:24;;;;;;;10.63;6.97;;;9.60;99.90;;;10.29;100.00;97933.34;4945747;28;20469;-77
2024/03/14 09:05:53;;;;;;;14.00;7.05;;;9.60;99.90;;;10.31;100.00;97944.44;4945809;28;20486;-77
2024/03/14 09:08:24;;;;;;;9.67;7.20;;;9.60;99.90;;;10.31;100.00;97942.63;4946148;28;20758;-77
2024/03/14 09:10:54;;;;;;;10.77;6.90;;;9.60;99.90;;;10.35;100.00;97932.59;4947811;28;20454;-76
2024/03/14 09:13:23;;;;;;;10.10;7.07;;;9.60;99.90;;;10.38;100.00;97933.03;4957326;28;20496;-77
2024/03/14 09:15:52;;;;;;;10.10;6.57;;;9.70;99.90;;;10.43;100.00;97927.25;4957015;28;20466;-76
2024/03/14 09:18:25;;;;;;;9.20;6.30;;;9.80;99.90;;;10.50;100.00;97930.72;4940455;28;20494;-77
2024/03/14 09:20:56;;;;;;;9.18;5.50;;;9.80;99.90;;;10.54;100.00;97922.31;4942635;28;20550;-77
2024/03/14 09:23:27;;;;;;;13.40;6.80;;;9.80;99.90;;;10.58;100.00;97918.34;4941824;28;20218;-77
2024/03/14 09:25:57;;;;;;;9.20;5.33;;;9.90;99.90;;;10.65;100.00;97920.19;4940831;28;20240;-77
2024/03/14 09:28:27;;;;;;;9.15;5.07;;;10.00;99.90;;;10.72;100.00;97919.22;4956605;28;20483;-77
2024/03/14 09:30:58;;;;;;;6.97;4.68;;;10.10;99.90;;;10.81;100.00;97922.50;4940817;28;20671;-77
2024/03/14 09:33:28;;;;;;;11.20;5.43;;;10.10;99.90;;;10.89;100.00;97917.94;4957858;28;20226;-77
2024/03/14 09:35:57;;;;;;;8.20;4.50;;;10.20;99.90;;;10.98;100.00;97929.03;4957156;28;20456;-77
2024/03/14 09:38:27;;;;;;;8.43;4.70;;;10.30;99.90;;;11.03;100.00;97918.81;4940713;28;20490;-77
2024/03/14 09:40:55;;;;;;;6.43;4.40;;;10.30;99.90;;;11.10;100.00;97922.28;4955896;28;20457;-77
2024/03/14 09:43:37;;;;;;;8.17;5.37;;;10.40;99.90;;;11.20;100.00;97927.16;4957784;28;20457;-77
2024/03/14 09:46:06;;;;;;;9.13;4.90;;;10.60;99.90;;;11.28;100.00;97925.16;4955425;28;20508;-77
2024/03/14 09:48:35;;;;;;;6.50;4.75;;;10.60;99.90;;;11.36;100.00;97916.34;4955521;28;20877;-77
2024/03/14 09:51:05;;;;;;;11.07;5.00;;;10.70;99.90;;;11.42;100.00;97919.00;4944575;28;20668;-77
2024/03/14 09:53:35;;;;;;;6.17;4.53;;;10.80;99.90;;;11.42;100.00;97921.59;4958423;28;20521;-77
2024/03/14 09:56:04;;;;;;;8.03;5.10;;;10.80;99.90;;;11.50;100.00;97912.78;4957697;28;20467;-77
2024/03/14 09:58:33;;;;;;;5.70;4.30;;;10.80;99.90;;;11.53;100.00;97921.06;4976011;28;20983;-77
2024/03/14 10:01:03;;;;;;;8.38;4.82;;;10.90;99.90;;;11.57;100.00;97919.66;4959079;28;20464;-77
2024/03/14 10:03:32;;;;;;;8.03;4.43;;;10.90;99.90;;;11.65;100.00;97923.13;4956165;28;20216;-77
2024/03/14 10:06:01;;;;;;;6.73;4.10;;;11.00;99.90;;;11.70;100.00;97915.50;4959139;28;20545;-77
2024/03/14 10:08:46;;;;;;;9.50;4.63;;;11.10;99.90;;;11.74;100.00;97914.91;4950488;28;20961;-80
2024/03/14 10:11:17;;;;;;;5.13;4.23;;;11.10;99.90;;;11.78;100.00;97915.31;4959700;28;20466;-77
2024/03/14 10:13:49;;;;;;;5.60;3.87;;;11.10;99.90;;;11.80;100.00;97913.34;4961128;28;20997;-77
2024/03/14 10:16:18;;;;;;;7.30;4.30;;;11.10;99.90;;;11.85;100.00;97911.72;4943116;28;20564;-77
2024/03/14 10:18:47;;;;;;;5.80;4.23;;;11.30;99.90;;;11.85;100.00;97921.38;4959083;28;20769;-77
2024/03/14 10:21:16;;;;;;;8.47;4.97;;;11.20;99.90;;;11.90;100.00;97913.75;4957921;28;20836;-77
2024/03/14 10:23:45;;;;;;;5.73;4.07;;;11.40;99.90;;;11.92;100.00;97916.97;4955053;28;20464;-77
2024/03/14 10:26:17;;;;;;;5.20;4.30;;;11.30;99.90;;;11.96;100.00;97918.19;4943207;28;20497;-77
2024/03/14 10:28:46;;;;;;;6.10;4.43;;;11.40;99.90;;;12.01;100.00;97913.97;4944241;28;20764;-78
2024/03/14 10:31:15;;;;;;;7.45;4.25;;;11.50;99.90;;;12.06;100.00;97919.41;4941479;28;20493;-77